Time;durP1;ratioP1;P1;durP2;ratioP2;P2;SDS_P1;SDS_P2;PMS_P1;PMS_P2;Temp;Humidity;BMP_temperature;BMP_pressure;BME280_temperature;BME280_humidity;BME280_pressure;Samples;Min_cycle;Max_cycle;Signal;HPM_P1;HPM_P2
2022/10/20 00:01:35;;;;;;;4.97;2.57;;;8.80;99.90;;;;;;5094574;28;20458;-50
2022/10/20 00:04:02;;;;;;;7.60;2.37;;;8.80;99.90;;;;;;5094908;28;20449;-52
2022/10/20 00:06:32;;;;;;;4.20;2.80;;;8.80;99.90;;;;;;5094560;28;20472;-52
2022/10/20 00:09:04;;;;;;;4.40;2.20;;;8.80;99.90;;;;;;5094983;28;20450;-55
2022/10/20 00:11:32;;;;;;;4.03;2.50;;;8.70;99.90;;;;;;5094430;28;20447;-54
2022/10/20 00:14:10;;;;;;;5.60;2.30;;;8.70;99.90;;;;;;5094148;28;20474;-54
2022/10/20 00:16:38;;;;;;;3.70;2.63;;;8.70;99.90;;;;;;5094198;28;20521;-49
2022/10/20 00:19:06;;;;;;;3.90;2.70;;;8.70;99.90;;;;;;5094800;28;20469;-54
2022/10/20 00:21:33;;;;;;;3.37;2.50;;;8.60;99.90;;;;;;5094389;28;20857;-53
2022/10/20 00:24:10;;;;;;;3.50;3.13;;;8.70;99.90;;;;;;5094631;28;20469;-49
2022/10/20 00:26:40;;;;;;;2.83;2.27;;;8.70;99.90;;;;;;5094367;28;20430;-55
2022/10/20 00:29:10;;;;;;;3.30;2.40;;;8.60;99.90;;;;;;5094865;28;20426;-52
2022/10/20 00:31:39;;;;;;;4.57;2.67;;;8.70;99.90;;;;;;5094917;28;20439;-55
2022/10/20 00:34:06;;;;;;;3.17;1.93;;;8.60;99.90;;;;;;5094874;28;20503;-57
2022/10/20 00:36:36;;;;;;;5.73;2.60;;;8.60;99.90;;;;;;5094440;28;20450;-54
2022/10/20 00:39:06;;;;;;;4.90;2.13;;;8.60;99.90;;;;;;5094576;28;20502;-56
2022/10/20 00:41:34;;;;;;;7.43;2.70;;;8.60;99.90;;;;;;5094845;28;20435;-49
2022/10/20 00:44:09;;;;;;;6.53;2.40;;;8.60;99.90;;;;;;5093858;28;20466;-54
2022/10/20 00:46:47;;;;;;;2.97;2.13;;;8.60;99.90;;;;;;5094293;28;20485;-55
2022/10/20 00:49:19;;;;;;;3.13;2.03;;;8.50;99.90;;;;;;5095151;28;20510;-51
2022/10/20 00:51:48;;;;;;;4.60;2.40;;;8.50;99.90;;;;;;5094131;28;20466;-50
2022/10/20 00:54:26;;;;;;;3.57;1.93;;;8.50;99.90;;;;;;5094235;28;20435;-51
2022/10/20 00:56:55;;;;;;;4.77;2.80;;;8.40;99.90;;;;;;5095253;28;20406;-52
2022/10/20 00:59:29;;;;;;;3.37;1.87;;;8.40;99.90;;;;;;5097160;28;20513;-54
2022/10/20 01:01:59;;;;;;;4.60;2.20;;;8.40;99.90;;;;;;5097622;28;20429;-50
2022/10/20 01:04:30;;;;;;;4.17;1.97;;;8.40;99.90;;;;;;5096143;28;20474;-51
2022/10/20 01:06:58;;;;;;;7.13;2.80;;;8.40;99.90;;;;;;5097788;28;20438;-51
2022/10/20 01:09:27;;;;;;;4.57;2.47;;;8.30;99.90;;;;;;5097125;28;20440;-56
2022/10/20 01:12:04;;;;;;;2.10;1.90;;;8.30;99.90;;;;;;5097342;28;20481;-54
2022/10/20 01:14:44;;;;;;;5.50;2.00;;;8.30;99.90;;;;;;5097274;28;20434;-51
2022/10/20 01:17:24;;;;;;;3.63;2.53;;;8.30;99.90;;;;;;5096981;28;20505;-52
2022/10/20 01:20:23;;;;;;;3.23;1.77;;;8.20;99.90;;;;;;5096559;28;20605;-55
2022/10/20 01:23:32;;;;;;;2.77;2.03;;;8.20;99.90;;;;;;5097053;28;20448;-51
2022/10/20 01:26:21;;;;;;;2.17;1.70;;;8.20;99.90;;;;;;5097343;28;20430;-56
2022/10/20 01:28:57;;;;;;;2.27;2.07;;;8.10;99.90;;;;;;5097150;28;20476;-52
2022/10/20 01:31:32;;;;;;;4.93;2.13;;;8.10;99.90;;;;;;5096859;28;20460;-51
2022/10/20 01:34:08;;;;;;;5.73;2.23;;;8.10;99.90;;;;;;5096607;28;20454;-50
2022/10/20 01:36:39;;;;;;;4.43;2.07;;;8.00;99.90;;;;;;5088578;28;20454;-55
2022/10/20 01:39:12;;;;;;;1.70;1.40;;;8.00;99.90;;;;;;5096789;28;20437;-53
2022/10/20 01:41:51;;;;;;;3.37;2.00;;;8.00;99.90;;;;;;5096450;28;20494;-48
2022/10/20 01:44:24;;;;;;;3.30;2.00;;;8.00;99.90;;;;;;5096640;28;20474;-53
2022/10/20 01:46:53;;;;;;;3.77;2.00;;;8.00;99.90;;;;;;5096548;28;20490;-55
2022/10/20 01:49:26;;;;;;;2.07;1.73;;;8.00;99.90;;;;;;5096629;28;20523;-57
2022/10/20 01:51:54;;;;;;;3.67;1.83;;;7.90;99.90;;;;;;5096791;28;20459;-49
2022/10/20 01:54:36;;;;;;;2.03;1.77;;;7.90;99.90;;;;;;5096705;28;20430;-53
2022/10/20 01:57:22;;;;;;;4.40;1.83;;;7.80;99.90;;;;;;5096506;28;20468;-51
2022/10/20 02:00:09;;;;;;;3.80;2.23;;;7.80;99.90;;;;;;5096799;28;20464;-51
2022/10/20 02:02:55;;;;;;;1.97;1.67;;;7.80;99.90;;;;;;5096815;28;20469;-54
2022/10/20 02:05:52;;;;;;;4.53;2.47;;;7.70;99.90;;;;;;5112528;28;20422;-51
2022/10/20 02:08:30;;;;;;;3.17;1.73;;;7.70;99.90;;;;;;5088403;28;20469;-55
2022/10/20 02:10:59;;;;;;;4.00;2.40;;;7.60;99.90;;;;;;5096863;28;20439;-57
2022/10/20 02:13:45;;;;;;;4.93;2.47;;;7.60;99.90;;;;;;5096373;28;20465;-55
2022/10/20 02:16:19;;;;;;;4.10;2.70;;;7.60;99.90;;;;;;5096087;28;20448;-54
2022/10/20 02:19:00;;;;;;;2.67;1.70;;;7.60;99.90;;;;;;5096738;28;20494;-48
2022/10/20 02:21:27;;;;;;;2.40;2.00;;;7.60;99.90;;;;;;5097322;28;20551;-52
2022/10/20 02:24:03;;;;;;;5.97;2.20;;;7.60;99.90;;;;;;5097619;28;20498;-57
2022/10/20 02:26:42;;;;;;;3.30;1.80;;;7.60;99.90;;;;;;5095700;28;20474;-51
2022/10/20 02:29:13;;;;;;;5.23;1.63;;;7.60;99.90;;;;;;5096478;28;20449;-50
2022/10/20 02:31:42;;;;;;;1.73;1.43;;;7.60;99.90;;;;;;5096021;28;20426;-55
2022/10/20 02:34:13;;;;;;;1.93;1.73;;;7.50;99.90;;;;;;5096078;28;20438;-56
2022/10/20 02:36:49;;;;;;;11.83;2.20;;;7.50;99.90;;;;;;5096250;28;20550;-53
2022/10/20 02:39:16;;;;;;;2.03;1.70;;;7.50;99.90;;;;;;5095980;28;20450;-53
2022/10/20 02:41:44;;;;;;;2.17;1.97;;;7.50;99.90;;;;;;5096160;28;20462;-57
2022/10/20 02:44:16;;;;;;;2.40;1.63;;;7.50;99.90;;;;;;5099034;28;20442;-48
2022/10/20 02:47:02;;;;;;;5.20;2.10;;;7.50;99.90;;;;;;5095882;28;20450;-51
2022/10/20 02:49:35;;;;;;;2.37;2.17;;;7.40;99.90;;;;;;5096212;28;20470;-52
2022/10/20 02:52:04;;;;;;;4.93;1.97;;;7.40;99.90;;;;;;5095762;28;20446;-52
2022/10/20 02:54:41;;;;;;;6.80;2.57;;;7.40;99.90;;;;;;5096181;28;20508;-49
2022/10/20 02:57:08;;;;;;;4.17;1.97;;;7.30;99.90;;;;;;5095876;28;20430;-47
2022/10/20 02:59:34;;;;;;;2.40;1.70;;;7.30;99.90;;;;;;5096058;28;20482;-54
2022/10/20 03:02:03;;;;;;;2.20;1.50;;;7.30;99.90;;;;;;5096719;28;20556;-50
2022/10/20 03:04:33;;;;;;;2.60;1.70;;;7.30;99.90;;;;;;5096788;28;20456;-51
2022/10/20 03:07:05;;;;;;;4.90;2.47;;;7.30;99.90;;;;;;5096108;28;20470;-52
2022/10/20 03:09:32;;;;;;;6.93;2.07;;;7.30;99.90;;;;;;5093992;28;20526;-44
2022/10/20 03:12:00;;;;;;;2.90;2.13;;;7.30;99.90;;;;;;5094760;28;20450;-50
2022/10/20 03:14:27;;;;;;;1.80;1.30;;;7.30;99.90;;;;;;5094904;28;20439;-52
2022/10/20 03:16:54;;;;;;;2.60;1.93;;;7.30;99.90;;;;;;5096387;28;20431;-56
2022/10/20 03:19:26;;;;;;;3.17;2.00;;;7.30;99.90;;;;;;5096435;28;20472;-55
2022/10/20 03:21:53;;;;;;;2.30;1.80;;;7.20;99.90;;;;;;5097048;28;20490;-56
2022/10/20 03:24:20;;;;;;;3.70;1.43;;;7.20;99.90;;;;;;5097016;28;20442;-53
2022/10/20 03:26:58;;;;;;;3.60;2.77;;;7.20;99.90;;;;;;5096588;28;20438;-52
2022/10/20 03:29:27;;;;;;;3.37;2.33;;;7.20;99.90;;;;;;5095488;28;20473;-49
2022/10/20 03:31:53;;;;;;;2.33;1.67;;;7.20;99.90;;;;;;5094791;28;20573;-50
2022/10/20 03:34:25;;;;;;;2.70;1.80;;;7.20;99.90;;;;;;5095300;28;20442;-48
2022/10/20 03:36:51;;;;;;;2.30;1.80;;;7.10;99.90;;;;;;5094283;28;20438;-50
2022/10/20 03:39:18;;;;;;;2.50;1.70;;;7.10;99.90;;;;;;5094469;28;20470;-53
2022/10/20 03:41:45;;;;;;;5.17;1.40;;;7.10;99.90;;;;;;5094127;28;20548;-52
2022/10/20 03:44:15;;;;;;;8.83;2.13;;;7.10;99.90;;;;;;5094468;28;20451;-48
2022/10/20 03:46:41;;;;;;;3.70;1.93;;;7.10;99.90;;;;;;5094632;28;20445;-45
2022/10/20 03:49:10;;;;;;;3.03;2.00;;;7.10;99.90;;;;;;5094766;28;20442;-51
2022/10/20 03:51:39;;;;;;;6.13;2.20;;;7.00;99.90;;;;;;5094148;28;20498;-52
2022/10/20 03:54:09;;;;;;;2.73;1.93;;;7.00;99.90;;;;;;5093856;28;20454;-53
2022/10/20 03:56:36;;;;;;;3.30;1.97;;;7.00;99.90;;;;;;5094200;28;20442;-46
2022/10/20 03:59:05;;;;;;;3.67;2.03;;;7.00;99.90;;;;;;5093192;28;20442;-48
2022/10/20 04:01:34;;;;;;;2.53;1.50;;;7.00;99.90;;;;;;5074741;28;20474;-53
2022/10/20 04:04:04;;;;;;;4.93;2.27;;;7.00;99.90;;;;;;5075729;28;20446;-51
2022/10/20 04:06:31;;;;;;;2.80;1.90;;;7.00;99.90;;;;;;5077207;28;20433;-50
2022/10/20 04:08:59;;;;;;;2.50;2.30;;;6.90;99.90;;;;;;5077235;28;20450;-54
2022/10/20 04:11:26;;;;;;;5.50;2.10;;;6.90;99.90;;;;;;5080661;28;20476;-58
2022/10/20 04:13:53;;;;;;;5.20;2.17;;;6.90;99.90;;;;;;5081960;28;20458;-58
2022/10/20 04:16:22;;;;;;;3.13;1.60;;;6.90;99.90;;;;;;5081129;28;20450;-55
2022/10/20 04:18:51;;;;;;;2.33;1.93;;;6.90;99.90;;;;;;5081035;28;20516;-56
2022/10/20 04:21:18;;;;;;;3.10;1.90;;;6.90;99.90;;;;;;5075168;28;20788;-57
2022/10/20 04:23:44;;;;;;;4.83;2.43;;;6.90;99.90;;;;;;5073896;28;20431;-54
2022/10/20 04:26:15;;;;;;;3.97;2.60;;;6.90;99.90;;;;;;5074179;28;20791;-56
2022/10/20 04:28:42;;;;;;;2.13;1.70;;;6.90;99.90;;;;;;5074240;28;20461;-54
2022/10/20 04:31:09;;;;;;;3.67;2.33;;;6.80;99.90;;;;;;5076575;28;20466;-50
2022/10/20 04:33:36;;;;;;;2.13;1.77;;;6.80;99.90;;;;;;5080257;28;20442;-50
2022/10/20 04:36:06;;;;;;;3.33;2.40;;;6.80;99.90;;;;;;5077924;28;20431;-57
2022/10/20 04:38:33;;;;;;;2.70;1.90;;;6.80;99.90;;;;;;5077995;28;20466;-51
2022/10/20 04:41:03;;;;;;;3.53;2.40;;;6.80;99.90;;;;;;5080245;28;20482;-57
2022/10/20 04:43:31;;;;;;;2.97;2.40;;;6.80;99.90;;;;;;5080802;28;20442;-57
2022/10/20 04:46:03;;;;;;;2.97;1.70;;;6.80;99.90;;;;;;5080633;28;20754;-56
2022/10/20 04:48:30;;;;;;;4.93;2.43;;;6.80;99.90;;;;;;5080760;28;20738;-53
2022/10/20 04:51:00;;;;;;;4.90;2.63;;;6.80;99.90;;;;;;5078197;28;21001;-54
2022/10/20 04:53:27;;;;;;;5.80;2.37;;;6.70;99.90;;;;;;5081823;28;20503;-56
2022/10/20 04:55:55;;;;;;;3.10;2.07;;;6.70;99.90;;;;;;5081019;28;20521;-53
2022/10/20 04:58:21;;;;;;;3.00;2.03;;;6.60;99.90;;;;;;5085207;28;20466;-56
2022/10/20 05:00:50;;;;;;;4.20;2.43;;;6.60;99.90;;;;;;5084726;28;20493;-55
2022/10/20 05:03:17;;;;;;;10.17;2.60;;;6.60;99.90;;;;;;5085306;28;20446;-56
2022/10/20 05:05:44;;;;;;;3.83;2.60;;;6.50;99.90;;;;;;5084276;28;20457;-55
2022/10/20 05:08:11;;;;;;;2.73;2.13;;;6.50;99.90;;;;;;5084232;28;20458;-56
2022/10/20 05:10:38;;;;;;;4.00;2.30;;;6.50;99.90;;;;;;5083888;28;20448;-54
2022/10/20 05:13:05;;;;;;;5.90;2.20;;;6.50;99.90;;;;;;5081141;28;20426;-55
2022/10/20 05:15:31;;;;;;;3.40;2.00;;;6.60;99.90;;;;;;5077032;28;20453;-54
2022/10/20 05:17:59;;;;;;;3.30;2.70;;;6.60;99.90;;;;;;5078180;28;20470;-56
2022/10/20 05:20:26;;;;;;;4.83;2.40;;;6.60;99.90;;;;;;5076958;28;20489;-55
2022/10/20 05:22:53;;;;;;;2.87;2.30;;;6.50;99.90;;;;;;5077170;28;20786;-60
2022/10/20 05:25:20;;;;;;;4.23;3.63;;;6.60;99.90;;;;;;5079215;28;20481;-54
2022/10/20 05:27:47;;;;;;;5.83;3.40;;;6.60;99.90;;;;;;5093069;28;20430;-53
2022/10/20 05:30:13;;;;;;;2.30;2.07;;;6.60;99.90;;;;;;5105917;28;20436;-50
2022/10/20 05:32:45;;;;;;;3.40;1.93;;;6.60;99.90;;;;;;5107067;28;20506;-58
2022/10/20 05:35:14;;;;;;;3.80;2.77;;;6.50;99.90;;;;;;5115409;28;20456;-53
2022/10/20 05:37:41;;;;;;;3.33;1.90;;;6.50;99.90;;;;;;5114585;28;20434;-47
2022/10/20 05:40:10;;;;;;;3.10;2.10;;;6.40;99.90;;;;;;5096162;28;20475;-50
2022/10/20 05:42:37;;;;;;;3.10;2.83;;;6.40;99.90;;;;;;5082200;28;20773;-49
2022/10/20 05:45:06;;;;;;;19.37;3.40;;;6.40;99.90;;;;;;5085409;28;20446;-54
2022/10/20 05:47:34;;;;;;;5.33;2.57;;;6.30;99.90;;;;;;5075272;28;20431;-47
2022/10/20 05:50:01;;;;;;;4.00;2.37;;;6.30;99.90;;;;;;5078496;28;20773;-57
2022/10/20 05:52:29;;;;;;;4.60;2.83;;;6.30;99.90;;;;;;5068693;28;20510;-56
2022/10/20 05:54:56;;;;;;;5.40;2.90;;;6.40;99.90;;;;;;5085697;28;20464;-57
2022/10/20 05:57:23;;;;;;;3.37;2.10;;;6.30;99.90;;;;;;5086912;28;20475;-55
2022/10/20 05:59:49;;;;;;;4.20;2.80;;;6.60;99.90;;;;;;5086336;28;20466;-52
2022/10/20 06:02:16;;;;;;;6.60;3.30;;;6.30;99.90;;;;;;5083057;28;20474;-54
2022/10/20 06:04:43;;;;;;;4.17;2.40;;;6.40;99.90;;;;;;5098847;28;20461;-56
2022/10/20 06:07:15;;;;;;;3.77;2.50;;;6.40;99.90;;;;;;5111067;28;20465;-52
2022/10/20 06:09:43;;;;;;;4.83;2.70;;;6.40;99.90;;;;;;5113870;28;21144;-53
2022/10/20 06:12:10;;;;;;;6.63;2.57;;;6.40;99.90;;;;;;5100339;28;20462;-49
2022/10/20 06:14:37;;;;;;;4.90;2.43;;;6.40;99.90;;;;;;5106079;28;20810;-51
2022/10/20 06:17:03;;;;;;;5.13;3.10;;;6.50;99.90;;;;;;5104891;28;20541;-53
2022/10/20 06:19:30;;;;;;;4.13;2.80;;;6.40;99.90;;;;;;5100278;28;20441;-58
2022/10/20 06:21:57;;;;;;;7.27;3.97;;;6.50;99.90;;;;;;5102673;28;20476;-50
2022/10/20 06:24:24;;;;;;;3.73;2.90;;;6.50;99.90;;;;;;5097020;28;20454;-48
2022/10/20 06:26:54;;;;;;;2.73;2.00;;;6.50;99.90;;;;;;5107107;28;20446;-53
2022/10/20 06:29:21;;;;;;;6.17;3.47;;;6.60;99.90;;;;;;5104279;28;20502;-48
2022/10/20 06:31:49;;;;;;;6.83;3.80;;;6.60;99.90;;;;;;5100673;28;20446;-52
2022/10/20 06:34:18;;;;;;;5.53;3.57;;;6.60;99.90;;;;;;5099771;28;20453;-55
2022/10/20 06:36:46;;;;;;;3.83;2.70;;;6.60;99.90;;;;;;5095628;28;20489;-55
2022/10/20 06:39:14;;;;;;;6.43;3.70;;;6.60;99.90;;;;;;5105591;28;20443;-49
2022/10/20 06:41:42;;;;;;;7.73;2.93;;;6.70;99.90;;;;;;5106492;28;20484;-57
2022/10/20 06:44:10;;;;;;;4.83;2.93;;;6.70;99.90;;;;;;5103809;28;20449;-47
2022/10/20 06:46:37;;;;;;;4.93;3.30;;;6.70;99.90;;;;;;5094382;28;20457;-50
2022/10/20 06:49:05;;;;;;;5.43;3.00;;;6.80;99.90;;;;;;5110563;28;20469;-57
2022/10/20 06:51:34;;;;;;;4.60;2.93;;;6.80;99.90;;;;;;5111338;28;20425;-41
2022/10/20 06:54:02;;;;;;;6.17;3.00;;;6.80;99.90;;;;;;5102507;28;20442;-52
2022/10/20 06:56:32;;;;;;;6.73;4.53;;;6.80;99.90;;;;;;5096914;28;20547;-53
2022/10/20 06:58:59;;;;;;;5.63;3.80;;;6.90;99.90;;;;;;5097898;28;20797;-53
2022/10/20 07:01:29;;;;;;;6.87;2.43;;;7.00;99.90;;;;;;5097903;28;20480;-57
2022/10/20 07:03:58;;;;;;;10.23;4.33;;;7.00;99.90;;;;;;5103179;28;20553;-50
2022/10/20 07:06:27;;;;;;;6.50;3.60;;;7.10;99.90;;;;;;5116823;28;20842;-46
2022/10/20 07:08:55;;;;;;;5.07;4.33;;;7.20;99.90;;;;;;5108419;28;20438;-51
2022/10/20 07:11:24;;;;;;;8.37;4.83;;;7.20;99.90;;;;;;5099362;28;20426;-52
2022/10/20 07:13:51;;;;;;;7.40;4.07;;;7.30;99.90;;;;;;5102833;28;20481;-52
2022/10/20 07:16:24;;;;;;;4.73;3.17;;;7.40;99.90;;;;;;5098533;28;20450;-56
2022/10/20 07:18:56;;;;;;;7.33;3.27;;;7.40;99.90;;;;;;5100875;28;20453;-54
2022/10/20 07:21:25;;;;;;;5.53;4.10;;;7.50;99.90;;;;;;5099399;28;20473;-53
2022/10/20 07:23:55;;;;;;;8.90;4.30;;;7.60;99.90;;;;;;5096392;28;20445;-50
2022/10/20 07:26:25;;;;;;;4.00;3.30;;;7.70;99.90;;;;;;5096883;28;20465;-52
2022/10/20 07:28:55;;;;;;;7.57;4.17;;;7.70;99.90;;;;;;5104038;28;20494;-54
2022/10/20 07:31:24;;;;;;;5.20;3.40;;;7.80;99.90;;;;;;5095032;28;20427;-54
2022/10/20 07:33:53;;;;;;;7.47;3.23;;;7.80;99.90;;;;;;5093639;28;20538;-56
2022/10/20 07:36:22;;;;;;;4.83;3.83;;;7.90;99.90;;;;;;5094153;28;20517;-56
2022/10/20 07:38:49;;;;;;;8.80;3.93;;;8.00;99.90;;;;;;5093860;28;20426;-53
2022/10/20 07:41:17;;;;;;;12.43;4.60;;;8.00;99.90;;;;;;5094553;28;20485;-52
2022/10/20 07:43:47;;;;;;;6.83;3.87;;;8.10;99.90;;;;;;5095167;28;20482;-48
2022/10/20 07:46:17;;;;;;;5.83;4.00;;;8.20;99.90;;;;;;5094375;28;20457;-56
2022/10/20 07:48:44;;;;;;;5.87;3.27;;;8.20;99.90;;;;;;5094598;28;20448;-54
2022/10/20 07:51:28;;;;;;;5.97;3.97;;;8.30;99.90;;;;;;5094406;28;20449;-56
2022/10/20 07:53:57;;;;;;;7.00;4.27;;;8.40;99.90;;;;;;5094835;28;20496;-50
2022/10/20 07:56:28;;;;;;;6.10;4.03;;;8.50;99.90;;;;;;5094291;28;20473;-54
2022/10/20 07:58:55;;;;;;;7.93;4.80;;;8.60;99.90;;;;;;5094064;28;20493;-55
2022/10/20 08:01:22;;;;;;;8.47;3.63;;;8.60;99.90;;;;;;5094287;28;20541;-55
2022/10/20 08:03:51;;;;;;;4.87;3.20;;;8.80;99.90;;;;;;5094554;28;20521;-53
2022/10/20 08:06:20;;;;;;;6.90;4.33;;;8.90;99.90;;;;;;5093978;28;20427;-52
2022/10/20 08:08:48;;;;;;;10.73;3.47;;;9.00;99.90;;;;;;5093697;28;20461;-50
2022/10/20 08:11:15;;;;;;;9.40;4.23;;;9.10;99.90;;;;;;5093799;28;20430;-52
2022/10/20 08:13:42;;;;;;;5.63;3.27;;;9.20;99.90;;;;;;5094666;28;20478;-53
2022/10/20 08:16:13;;;;;;;5.57;3.60;;;9.30;99.90;;;;;;5094383;28;20504;-55
2022/10/20 08:18:42;;;;;;;3.10;2.40;;;9.40;99.90;;;;;;5094218;28;20451;-53
2022/10/20 08:21:12;;;;;;;7.33;3.53;;;9.50;99.90;;;;;;5094393;28;20438;-55
2022/10/20 08:23:50;;;;;;;8.57;4.00;;;9.60;99.90;;;;;;5095071;28;20431;-53
2022/10/20 08:26:28;;;;;;;6.00;4.00;;;9.80;99.90;;;;;;5094054;28;20577;-54
2022/10/20 08:28:55;;;;;;;4.63;3.50;;;9.80;99.90;;;;;;5094319;28;20469;-52
2022/10/20 08:31:23;;;;;;;10.83;3.67;;;10.00;99.90;;;;;;5093979;28;20438;-55
2022/10/20 08:33:50;;;;;;;5.00;3.57;;;10.10;99.90;;;;;;5094779;28;20454;-52
2022/10/20 08:36:17;;;;;;;4.83;3.40;;;10.20;99.90;;;;;;5094900;28;20453;-52
2022/10/20 08:38:48;;;;;;;6.33;3.40;;;10.30;99.90;;;;;;5094411;28;20453;-48
2022/10/20 08:41:19;;;;;;;6.10;3.20;;;10.40;99.90;;;;;;5094941;28;20476;-54
2022/10/20 08:43:48;;;;;;;4.00;3.13;;;10.60;99.90;;;;;;5094995;28;20504;-53
2022/10/20 08:46:19;;;;;;;8.23;3.97;;;10.70;99.90;;;;;;5094426;28;20454;-54
2022/10/20 08:48:47;;;;;;;4.73;3.17;;;10.80;99.90;;;;;;5094425;28;20443;-54
2022/10/20 08:51:22;;;;;;;6.07;4.13;;;10.90;99.90;;;;;;5094964;28;20758;-58
2022/10/20 08:53:55;;;;;;;5.53;3.43;;;11.00;99.90;;;;;;5095063;28;20436;-57
2022/10/20 08:56:27;;;;;;;5.60;3.60;;;11.00;99.90;;;;;;5094535;28;20422;-53
2022/10/20 08:58:54;;;;;;;6.17;3.27;;;11.00;99.90;;;;;;5094401;28;20484;-58
2022/10/20 09:01:24;;;;;;;3.70;3.10;;;11.10;99.90;;;;;;5094677;28;20485;-55
2022/10/20 09:03:57;;;;;;;9.83;4.50;;;11.20;99.90;;;;;;5094318;28;20446;-51
2022/10/20 09:06:25;;;;;;;11.03;4.63;;;11.30;99.90;;;;;;5094716;28;20418;-56
2022/10/20 09:08:56;;;;;;;5.70;3.50;;;11.50;99.90;;;;;;5094621;28;20494;-53
2022/10/20 09:11:26;;;;;;;4.03;3.37;;;11.70;99.90;;;;;;5094504;28;20450;-56
2022/10/20 09:13:54;;;;;;;4.83;2.90;;;11.90;99.90;;;;;;5094634;28;20434;-54
2022/10/20 09:16:27;;;;;;;6.73;3.53;;;12.00;99.90;;;;;;5094795;28;20501;-52
2022/10/20 09:18:57;;;;;;;9.30;3.50;;;12.30;99.90;;;;;;5098637;28;20490;-49
2022/10/20 09:21:30;;;;;;;4.10;3.47;;;12.40;99.90;;;;;;5098890;28;20502;-53
2022/10/20 09:24:06;;;;;;;4.33;3.47;;;12.70;99.90;;;;;;5098943;28;20492;-55
2022/10/20 09:26:38;;;;;;;6.10;3.90;;;12.90;99.90;;;;;;5098889;28;20437;-56
2022/10/20 09:29:07;;;;;;;6.97;3.70;;;13.30;99.90;;;;;;5098757;28;20446;-52
2022/10/20 09:31:36;;;;;;;7.70;3.30;;;14.10;99.90;;;;;;5098216;28;20473;-58
2022/10/20 09:34:20;;;;;;;3.90;3.30;;;15.40;99.90;;;;;;5098604;28;20438;-50
2022/10/20 09:36:49;;;;;;;6.80;4.33;;;16.90;99.90;;;;;;5098942;28;20435;-57
2022/10/20 09:39:21;;;;;;;5.43;3.30;;;18.20;99.90;;;;;;5098628;28;20419;-53
2022/10/20 09:41:50;;;;;;;3.37;2.57;;;19.30;99.90;;;;;;5098869;28;20921;-56
2022/10/20 09:44:22;;;;;;;3.77;2.70;;;20.00;99.40;;;;;;5098286;28;20540;-51
2022/10/20 09:46:53;;;;;;;3.23;2.87;;;20.50;96.70;;;;;;5098731;28;20426;-54
2022/10/20 09:49:28;;;;;;;3.97;2.57;;;20.90;95.10;;;;;;5099236;28;20423;-58
2022/10/20 09:51:55;;;;;;;4.00;3.47;;;21.00;93.10;;;;;;5099198;28;20436;-53
2022/10/20 09:54:25;;;;;;;3.80;3.40;;;21.20;91.60;;;;;;5098954;28;20450;-57
2022/10/20 09:56:53;;;;;;;7.13;3.30;;;21.40;90.00;;;;;;5098794;28;20461;-56
2022/10/20 09:59:25;;;;;;;3.57;3.00;;;21.40;88.60;;;;;;5099232;28;20472;-55
2022/10/20 10:01:54;;;;;;;4.17;3.47;;;21.50;87.80;;;;;;5099300;28;20493;-53
2022/10/20 10:04:36;;;;;;;8.50;3.53;;;21.60;86.50;;;;;;5099176;28;20437;-57
2022/10/20 10:07:05;;;;;;;3.77;2.53;;;21.60;84.80;;;;;;5098860;28;20457;-50
2022/10/20 10:09:34;;;;;;;3.67;2.90;;;21.60;83.50;;;;;;5099418;28;20474;-51
2022/10/20 10:12:04;;;;;;;4.07;2.70;;;21.70;83.80;;;;;;5098969;28;20462;-53
2022/10/20 10:14:33;;;;;;;7.87;2.73;;;22.00;81.10;;;;;;5097920;28;20506;-53
2022/10/20 10:17:03;;;;;;;3.80;2.77;;;22.00;81.80;;;;;;5097742;28;20477;-56
2022/10/20 10:19:33;;;;;;;7.60;2.90;;;22.30;77.80;;;;;;5097704;28;20495;-52
2022/10/20 10:22:02;;;;;;;4.20;2.47;;;22.20;78.00;;;;;;5097759;28;20477;-56
2022/10/20 10:24:45;;;;;;;9.13;2.70;;;22.50;75.10;;;;;;5097412;28;20458;-51
2022/10/20 10:27:23;;;;;;;2.77;2.53;;;22.30;74.70;;;;;;5097394;28;20464;-54
2022/10/20 10:29:53;;;;;;;2.90;2.40;;;22.20;73.20;;;;;;5097250;28;20557;-52
2022/10/20 10:32:25;;;;;;;2.50;2.30;;;21.90;73.90;;;;;;5097170;28;20466;-52
2022/10/20 10:35:12;;;;;;;3.80;2.20;;;21.60;74.40;;;;;;5097404;28;20446;-47
2022/10/20 10:37:41;;;;;;;2.73;2.40;;;21.60;73.80;;;;;;5097215;28;20464;-50
2022/10/20 10:40:15;;;;;;;4.00;2.80;;;21.40;74.90;;;;;;5097344;28;20443;-52
2022/10/20 10:42:59;;;;;;;3.60;2.30;;;21.30;75.60;;;;;;5097248;28;20494;-48
2022/10/20 10:45:43;;;;;;;2.60;2.37;;;21.30;75.20;;;;;;5096969;28;20446;-48
2022/10/20 10:48:29;;;;;;;6.10;2.30;;;21.10;75.10;;;;;;5096874;28;20474;-52
2022/10/20 10:51:00;;;;;;;3.50;2.40;;;20.70;75.40;;;;;;5096992;28;20433;-50
2022/10/20 10:53:41;;;;;;;3.20;2.87;;;20.40;76.70;;;;;;5097148;28;20435;-52
2022/10/20 10:56:17;;;;;;;4.10;3.03;;;20.00;77.70;;;;;;5096754;28;20438;-53
2022/10/20 10:58:53;;;;;;;3.20;2.43;;;19.90;78.90;;;;;;5096886;28;20447;-48
2022/10/20 11:01:47;;;;;;;3.10;2.40;;;19.40;80.80;;;;;;5096861;28;20949;-47
2022/10/20 11:04:42;;;;;;;3.27;2.67;;;19.00;82.50;;;;;;5097082;28;20490;-50
2022/10/20 11:07:16;;;;;;;5.37;3.67;;;18.50;84.50;;;;;;5097227;28;20510;-52
2022/10/20 11:09:53;;;;;;;3.77;2.50;;;18.10;87.30;;;;;;5097658;28;20539;-53
2022/10/20 11:12:40;;;;;;;4.03;2.63;;;17.80;90.00;;;;;;5096827;28;20453;-51
2022/10/20 11:15:20;;;;;;;3.17;2.60;;;17.50;91.10;;;;;;5096944;28;20453;-55
2022/10/20 11:17:55;;;;;;;4.20;2.37;;;17.30;92.20;;;;;;5096421;28;20429;-54
2022/10/20 11:20:30;;;;;;;2.60;2.30;;;17.00;93.70;;;;;;5096841;28;20478;-49
2022/10/20 11:23:21;;;;;;;3.67;2.63;;;16.90;94.80;;;;;;5096680;28;20496;-49
2022/10/20 11:25:51;;;;;;;6.30;2.60;;;16.70;95.40;;;;;;5096919;28;20486;-52
2022/10/20 11:28:29;;;;;;;4.27;2.30;;;16.50;96.20;;;;;;5095370;28;20451;-57
2022/10/20 11:30:58;;;;;;;3.00;2.27;;;16.30;97.10;;;;;;5097068;28;20470;-53
2022/10/20 11:33:32;;;;;;;2.70;2.07;;;16.10;98.20;;;;;;5096717;28;20443;-54
2022/10/20 11:36:04;;;;;;;2.37;2.17;;;16.10;99.50;;;;;;5096690;28;20417;-48
2022/10/20 11:38:40;;;;;;;3.23;2.60;;;16.00;99.30;;;;;;5097090;28;20422;-50
2022/10/20 11:41:11;;;;;;;2.97;2.63;;;15.80;99.90;;;;;;5096612;28;20437;-54
2022/10/20 11:43:46;;;;;;;2.13;1.63;;;15.80;99.90;;;;;;5097179;28;20506;-47
2022/10/20 11:46:15;;;;;;;7.63;2.27;;;15.50;99.90;;;;;;5096828;28;20426;-49
2022/10/20 11:48:46;;;;;;;2.67;2.20;;;15.40;99.90;;;;;;5096811;28;20454;-54
2022/10/20 11:51:32;;;;;;;3.27;2.20;;;15.40;99.90;;;;;;5096431;28;20433;-49
2022/10/20 11:54:24;;;;;;;3.90;2.10;;;15.30;99.90;;;;;;5097033;28;20441;-56
2022/10/20 11:57:09;;;;;;;2.90;2.20;;;15.30;99.90;;;;;;5096171;28;20447;-51
2022/10/20 12:00:02;;;;;;;2.67;2.17;;;15.30;99.90;;;;;;5096456;28;20435;-56
2022/10/20 12:03:20;;;;;;;2.70;1.70;;;15.40;99.90;;;;;;5093415;28;20509;-58
2022/10/20 12:06:21;;;;;;;2.97;1.97;;;15.40;99.90;;;;;;5096099;28;20430;-52
2022/10/20 12:09:16;;;;;;;3.10;1.80;;;15.50;99.90;;;;;;5095669;28;21037;-52
2022/10/20 12:11:51;;;;;;;4.43;2.00;;;15.40;99.90;;;;;;5095908;28;20447;-50
2022/10/20 12:14:25;;;;;;;1.70;1.60;;;15.40;99.90;;;;;;5096373;28;20458;-52
2022/10/20 12:17:13;;;;;;;2.13;1.93;;;15.40;99.90;;;;;;5096345;28;20434;-56
2022/10/20 12:19:41;;;;;;;3.30;1.97;;;15.50;99.90;;;;;;5096590;28;20446;-50
2022/10/20 12:22:39;;;;;;;2.83;1.70;;;15.60;99.90;;;;;;5096886;28;20465;-53
2022/10/20 12:25:35;;;;;;;3.60;2.20;;;15.70;99.90;;;;;;5097144;28;20437;-47
2022/10/20 12:28:50;;;;;;;2.83;1.63;;;15.80;99.90;;;;;;5096611;28;20430;-52
2022/10/20 12:31:17;;;;;;;2.53;2.33;;;15.80;99.90;;;;;;5062127;28;20506;-58
2022/10/20 12:34:03;;;;;;;3.80;1.80;;;15.90;99.90;;;;;;5096949;28;20851;-53
2022/10/20 12:36:36;;;;;;;2.80;2.27;;;16.00;99.90;;;;;;5097131;28;20422;-50
2022/10/20 12:39:28;;;;;;;2.70;2.23;;;16.10;99.90;;;;;;5096676;28;20470;-51
2022/10/20 12:41:58;;;;;;;4.17;2.67;;;16.20;99.90;;;;;;5093156;28;20460;-50
2022/10/20 12:44:28;;;;;;;2.70;2.20;;;16.40;99.90;;;;;;5095077;28;20550;-49
2022/10/20 12:46:58;;;;;;;3.20;2.60;;;16.50;99.90;;;;;;5095471;28;20451;-51
2022/10/20 12:49:32;;;;;;;1.77;1.67;;;16.60;99.90;;;;;;5095889;28;20434;-49
2022/10/20 12:52:01;;;;;;;3.57;2.47;;;16.50;99.90;;;;;;5095306;28;20441;-49
2022/10/20 12:54:34;;;;;;;4.90;2.33;;;16.50;99.90;;;;;;5099341;28;20447;-52
2022/10/20 12:57:04;;;;;;;3.10;2.30;;;16.30;99.90;;;;;;5100566;28;20517;-56
2022/10/20 12:59:45;;;;;;;2.17;1.70;;;16.20;99.90;;;;;;5100603;28;20433;-55
2022/10/20 13:02:49;;;;;;;4.90;1.87;;;16.20;99.90;;;;;;5100579;28;20460;-54
2022/10/20 13:05:40;;;;;;;6.43;2.10;;;16.20;99.90;;;;;;5099766;28;20462;-50
2022/10/20 13:08:27;;;;;;;2.50;2.00;;;16.10;99.90;;;;;;5099120;28;20458;-52
2022/10/20 13:10:55;;;;;;;2.80;2.00;;;16.20;99.90;;;;;;5099303;28;20426;-53
2022/10/20 13:13:48;;;;;;;2.93;2.20;;;16.30;99.90;;;;;;5098906;28;20434;-56
2022/10/20 13:16:22;;;;;;;2.40;2.03;;;16.50;99.90;;;;;;5098903;28;20418;-50
2022/10/20 13:18:54;;;;;;;3.60;2.37;;;16.50;99.90;;;;;;5099141;28;20426;-54
2022/10/20 13:21:31;;;;;;;2.20;1.60;;;16.50;99.90;;;;;;5098945;28;20496;-53